Hyères, Francia

5:39 PM CEST en Septiembre 18, 2014 (GMT +0200)
Le Palyvestre Navy | Change Station
CLOSE
Current Station
Aeropuerto
Location: Hyeres,
Altura: 13 ft
Estaciones meteorológicas cercanas

Alt 13 ft 43.09 °N, 6.15 °E | Updated 9 minutes ago

Partly Cloudy
Parcialmente nublado
75 ° F
Sensación térmica 75 ° F
N
15
Viento Variable Viento desde Este

Hoy
Alta -- | Baja -- ° F
--% Posibilidad de precipitaciones
Ayer
Alta -- | Baja -- ° F
Precip. -- pul
7:18 AM 7:40 PM
Creciente menguante, 26% visible
Presión 29.89 pul
Visibilidad 6.2 Millas
Nubes Baja 3000 ft
Punto de rocío 66 ° F
Humedad 73%
Precipitaciones 0.00 pul
Espesor de la nieve No disponible.
UV 2 de una escala de 12
Polen No disponible.
Calidad del aire No disponible.
Flu Activity No disponible.
METAR LFTH 181530Z AUTO 09013KT 9999 FEW030 24/19 Q1012

More Conditions Fewer Conditions

Presión 29.89 pul
Visibilidad 6.2 Millas
Nubes Baja 3000 ft
Punto de rocío 66 ° F
Humedad 73%
Precipitaciones 0.00 pul
Espesor de la nieve No disponible.
UV 2 de una escala de 12
Polen No disponible.
Calidad del aire No disponible.
Flu Activity No disponible.
METAR LFTH 181530Z AUTO 09013KT 9999 FEW030 24/19 Q1012

More Conditions Fewer Conditions

10-Day Weather Forecast

Almanac

Astronomía

Sep. 18, 2014 Salida Puesta
Hora real 7:18 AM CEST 7:40 PM CEST
Crepúsculo civil 6:49 AM CEST 8:08 PM CEST
Crepúsculo náutico 6:15 AM CEST 8:42 PM CEST
Crepúsculo astronómico 5:41 AM CEST 9:16 PM CEST
Luna 1:49 AM CEST 4:26 PM CEST
Horas de luz 13h 19m
Horas de luz
12h 22m
Tomorrow will be 2m 55s shorter.
Creciente menguante, 26% of the Moon is Illuminated
Hoy
Creciente menguante
Sep 24
Nueva
Oct 1
Cuarto creciente
Oct 8
Luna llena
Oct 15
Cuarto menguante

Extremos de hoy

Máximos del país Bajas del país

Community

WunderPhotos

Upload Photos

1,754,368 ¡fotos cargadas!

Nearby

Calidad del aire

Not available.

Grosos de nieve

Not available.

Actividad de terremotos

Ciudad Distance Mag. Tiempo y dato
No hay informes recientes de la actividad sísmica.
Magnitud mínima muestra es 2,5.

Temperaturas de aguas costeras

Lugar Temperatura
Sin partes meteorológicos de las estaciones

Estaciones meteorológicas cercanas